createdAt,value
2023-02-03T00:01:49.619Z,80.18
2023-02-03T00:04:16.149Z,81.14
2023-02-03T00:06:42.743Z,80.86
2023-02-03T00:09:09.422Z,80.64
2023-02-03T00:11:36.081Z,80.01
2023-02-03T00:14:03.434Z,79.99
2023-02-03T00:16:29.927Z,80.24
2023-02-03T00:18:56.347Z,80.39
2023-02-03T00:21:22.854Z,79.88
2023-02-03T00:23:49.223Z,79.98
2023-02-03T00:26:17.315Z,79.68
2023-02-03T00:28:44.938Z,80.02
2023-02-03T00:31:19.199Z,79.67
2023-02-03T00:33:46.507Z,79.20
2023-02-03T00:36:13.380Z,79.63
2023-02-03T00:38:39.888Z,79.86
2023-02-03T00:41:07.008Z,79.87
2023-02-03T00:43:33.518Z,80.19
2023-02-03T00:46:00.344Z,79.63
2023-02-03T00:48:26.967Z,81.30
2023-02-03T00:50:53.516Z,81.72
2023-02-03T00:53:19.944Z,81.79
2023-02-03T00:55:47.100Z,82.59
2023-02-03T00:58:13.496Z,83.37
2023-02-03T01:00:39.981Z,82.79
2023-02-03T01:03:06.700Z,83.13
2023-02-03T01:05:33.254Z,82.86
2023-02-03T01:08:00.979Z,82.83
2023-02-03T01:10:29.139Z,82.89
2023-02-03T01:12:56.195Z,82.72
2023-02-03T01:15:22.653Z,82.85
2023-02-03T01:17:49.103Z,82.46
2023-02-03T01:20:17.640Z,82.95
2023-02-03T01:22:44.138Z,83.80
2023-02-03T01:25:10.895Z,83.21
2023-02-03T01:27:37.457Z,83.93
2023-02-03T01:30:04.521Z,84.35
2023-02-03T01:32:31.003Z,83.76
2023-02-03T01:34:57.474Z,84.61
2023-02-03T01:37:23.958Z,85.23
2023-02-03T01:39:50.390Z,84.39
2023-02-03T01:42:16.800Z,84.98
2023-02-03T01:44:44.969Z,85.11
2023-02-03T01:47:36.456Z,85.46
2023-02-03T01:50:11.381Z,85.69
2023-02-03T01:52:40.729Z,85.25
2023-02-03T01:55:10.736Z,85.10
2023-02-03T01:57:47.159Z,84.99
2023-02-03T02:00:14.696Z,84.59
2023-02-03T02:02:44.854Z,85.13
2023-02-03T02:05:22.605Z,84.43
2023-02-03T02:07:49.746Z,85.00
2023-02-03T02:10:16.605Z,84.79
2023-02-03T02:12:43.273Z,84.87
2023-02-03T02:15:10.299Z,85.39
2023-02-03T02:18:13.252Z,84.78
2023-02-03T02:21:11.694Z,85.42
2023-02-03T02:24:12.733Z,84.29
2023-02-03T02:26:48.106Z,84.05
2023-02-03T02:29:49.194Z,84.28
2023-02-03T02:32:36.784Z,84.47
2023-02-03T02:35:16.893Z,83.85
2023-02-03T02:37:49.140Z,84.37
2023-02-03T02:40:32.935Z,83.68
2023-02-03T02:43:08.742Z,84.01
2023-02-03T02:45:50.967Z,84.03
2023-02-03T02:48:26.711Z,83.80
2023-02-03T02:50:56.404Z,83.43
2023-02-03T02:53:26.689Z,83.54
2023-02-03T02:55:57.029Z,83.94
2023-02-03T02:58:24.760Z,83.26
2023-02-03T03:00:51.576Z,83.41
2023-02-03T03:03:23.935Z,83.24
2023-02-03T03:06:08.040Z,83.12
2023-02-03T03:09:00.232Z,82.80
2023-02-03T03:11:31.394Z,82.86
2023-02-03T03:13:59.733Z,83.40
2023-02-03T03:16:30.543Z,82.58
2023-02-03T03:19:01.856Z,82.51
2023-02-03T03:21:37.745Z,82.26
2023-02-03T03:24:08.735Z,82.52
2023-02-03T03:27:14.156Z,82.28
2023-02-03T03:30:02.525Z,82.57
2023-02-03T03:32:32.937Z,82.96
2023-02-03T03:35:01.747Z,83.17
2023-02-03T03:37:35.725Z,83.01
2023-02-03T03:40:24.036Z,82.77
2023-02-03T03:42:57.209Z,82.59
2023-02-03T03:45:29.496Z,82.44
2023-02-03T03:48:18.581Z,81.80
2023-02-03T03:50:51.436Z,81.62
2023-02-03T03:53:19.729Z,81.91
2023-02-03T03:55:51.423Z,81.11
2023-02-03T03:58:25.528Z,80.87
2023-02-03T04:00:54.331Z,81.50
2023-02-03T04:03:25.439Z,81.10
2023-02-03T04:05:53.195Z,80.87
2023-02-03T04:08:19.661Z,81.11
2023-02-03T04:10:46.419Z,80.91
2023-02-03T04:13:12.948Z,79.87
2023-02-03T04:15:39.347Z,80.35
2023-02-03T04:18:06.552Z,80.60
2023-02-03T04:20:33.499Z,81.14
2023-02-03T04:23:00.508Z,80.57
2023-02-03T04:25:27.317Z,80.44
2023-02-03T04:27:55.261Z,80.85
2023-02-03T04:30:21.916Z,80.76
2023-02-03T04:32:48.977Z,80.80
2023-02-03T04:35:15.401Z,80.66
2023-02-03T04:37:41.929Z,81.54
2023-02-03T04:40:09.524Z,81.49
2023-02-03T04:42:40.209Z,82.25
2023-02-03T04:45:08.695Z,82.13
2023-02-03T04:47:36.576Z,82.22
2023-02-03T04:50:03.397Z,81.60
2023-02-03T04:52:29.835Z,81.74
2023-02-03T04:54:56.334Z,82.04
2023-02-03T04:57:22.781Z,81.72
2023-02-03T04:59:49.321Z,82.23
2023-02-03T05:02:15.889Z,82.54
2023-02-03T05:04:42.308Z,82.64
2023-02-03T05:07:09.659Z,82.50
2023-02-03T05:09:36.210Z,83.21
2023-02-03T05:12:02.693Z,82.89
2023-02-03T05:14:29.145Z,83.22
2023-02-03T05:16:55.619Z,83.82
2023-02-03T05:19:22.070Z,83.03
2023-02-03T05:21:48.571Z,82.48
2023-02-03T05:24:15.001Z,83.04
2023-02-03T05:26:41.422Z,83.36
2023-02-03T05:29:07.900Z,83.31
2023-02-03T05:31:35.069Z,83.32
2023-02-03T05:34:01.571Z,82.63
2023-02-03T05:36:27.989Z,82.71
2023-02-03T05:38:54.467Z,83.30
2023-02-03T05:41:39.729Z,82.96
2023-02-03T05:44:06.998Z,82.65
2023-02-03T05:46:33.413Z,82.78
2023-02-03T05:48:59.861Z,82.80
2023-02-03T05:51:26.353Z,82.40
2023-02-03T05:53:53.721Z,87.85
2023-02-03T05:56:20.189Z,93.98
2023-02-03T05:58:46.688Z,93.22
2023-02-03T06:01:13.099Z,88.58
2023-02-03T06:03:39.890Z,87.30
2023-02-03T06:06:06.435Z,83.56
2023-02-03T06:08:32.859Z,81.53
2023-02-03T06:11:00.694Z,81.62
2023-02-03T06:13:27.257Z,80.50
2023-02-03T06:15:54.393Z,78.38
2023-02-03T06:18:21.102Z,73.87
2023-02-03T06:20:47.590Z,74.85
2023-02-03T06:23:14.026Z,75.73
2023-02-03T06:25:40.431Z,77.15
2023-02-03T06:28:06.896Z,78.18
2023-02-03T06:30:34.108Z,79.39
2023-02-03T06:33:00.828Z,79.61
2023-02-03T06:35:27.332Z,80.57
2023-02-03T06:37:53.839Z,81.73
2023-02-03T06:40:20.572Z,81.90
2023-02-03T06:42:48.196Z,82.06
2023-02-03T06:45:15.340Z,81.99
2023-02-03T06:47:42.731Z,82.55
2023-02-03T06:50:11.408Z,83.23
2023-02-03T06:52:39.015Z,82.83
2023-02-03T06:55:06.486Z,82.57
2023-02-03T06:57:33.387Z,82.43
2023-02-03T07:00:00.010Z,82.76
2023-02-03T07:02:26.490Z,82.44
2023-02-03T07:04:52.874Z,82.62
2023-02-03T07:10:37.037Z,82.48
2023-02-03T07:13:06.101Z,82.26
2023-02-03T07:15:32.800Z,82.15
2023-02-03T07:17:59.775Z,82.48
2023-02-03T07:20:28.969Z,83.19
2023-02-03T07:22:57.259Z,82.69
2023-02-03T07:25:25.341Z,81.77
2023-02-03T07:27:52.235Z,82.65
2023-02-03T07:30:18.908Z,82.00
2023-02-03T07:32:53.077Z,82.32
2023-02-03T07:35:20.419Z,81.82
2023-02-03T07:37:46.968Z,81.61
2023-02-03T07:40:14.441Z,82.10
2023-02-03T07:42:46.183Z,82.42
2023-02-03T07:45:14.857Z,81.88
2023-02-03T07:47:42.603Z,82.22
2023-02-03T07:50:11.170Z,82.33
2023-02-03T07:52:38.170Z,82.11
2023-02-03T07:55:05.303Z,81.71
2023-02-03T07:57:32.884Z,82.24
2023-02-03T07:59:59.298Z,80.98
2023-02-03T08:02:26.206Z,81.37
2023-02-03T08:04:52.982Z,81.16
2023-02-03T08:07:19.444Z,81.43
2023-02-03T08:09:45.925Z,81.14
2023-02-03T08:12:12.444Z,81.73
2023-02-03T08:14:39.064Z,81.70
2023-02-03T08:17:05.484Z,81.70
2023-02-03T08:19:31.929Z,81.72
2023-02-03T08:21:59.550Z,81.52
2023-02-03T08:24:26.213Z,81.47
2023-02-03T08:26:53.053Z,80.68
2023-02-03T08:29:19.898Z,81.64
2023-02-03T08:31:46.502Z,80.78
2023-02-03T08:34:13.811Z,81.13
2023-02-03T08:36:40.217Z,80.68
2023-02-03T08:39:07.057Z,80.49
2023-02-03T08:41:34.274Z,80.42
2023-02-03T08:44:01.398Z,80.74
2023-02-03T08:46:28.549Z,80.66
2023-02-03T08:48:57.369Z,80.38
2023-02-03T08:51:24.622Z,80.73
2023-02-03T08:53:51.110Z,80.62
2023-02-03T08:56:17.946Z,80.88
2023-02-03T08:58:44.369Z,81.16
2023-02-03T09:01:13.902Z,80.91
2023-02-03T09:03:41.187Z,81.06
2023-02-03T09:06:09.289Z,80.52
2023-02-03T09:08:35.833Z,80.01
2023-02-03T09:11:02.287Z,80.33
2023-02-03T09:13:29.047Z,80.41
2023-02-03T09:15:55.459Z,80.95
2023-02-03T09:18:21.887Z,81.53
2023-02-03T09:20:48.353Z,81.63
2023-02-03T09:23:15.150Z,83.12
2023-02-03T09:25:43.721Z,83.25
2023-02-03T09:28:12.494Z,82.72
2023-02-03T09:30:39.093Z,82.31
2023-02-03T09:33:05.633Z,82.68
2023-02-03T09:35:32.054Z,82.47
2023-02-03T09:37:59.651Z,81.99
2023-02-03T09:40:31.143Z,82.34
2023-02-03T09:43:46.347Z,82.10
2023-02-03T09:46:16.433Z,81.29
2023-02-03T09:48:53.068Z,82.02
2023-02-03T09:51:27.788Z,82.42
2023-02-03T09:54:04.185Z,83.27
2023-02-03T09:56:34.624Z,83.64
2023-02-03T09:59:01.566Z,84.46
2023-02-03T10:01:55.410Z,85.04
2023-02-03T10:04:37.861Z,84.80
2023-02-03T10:07:25.201Z,84.34
2023-02-03T10:10:03.291Z,83.17
2023-02-03T10:13:01.219Z,83.44
2023-02-03T10:15:42.793Z,82.15
2023-02-03T10:18:16.727Z,80.84
2023-02-03T10:20:47.755Z,81.24
2023-02-03T10:23:23.276Z,80.56
2023-02-03T10:25:57.831Z,80.62
2023-02-03T10:28:31.332Z,80.17
2023-02-03T10:31:01.029Z,80.11
2023-02-03T10:33:31.364Z,80.91
2023-02-03T10:36:31.760Z,81.22
2023-02-03T10:39:27.778Z,80.42
2023-02-03T10:41:54.673Z,80.21
2023-02-03T10:44:24.369Z,80.57
2023-02-03T10:46:51.363Z,80.66
2023-02-03T10:49:19.066Z,81.12
2023-02-03T10:51:50.464Z,80.68
2023-02-03T10:54:47.392Z,79.33
2023-02-03T10:57:16.055Z,78.79
2023-02-03T10:59:45.585Z,79.28
2023-02-03T11:02:31.114Z,78.53
2023-02-03T11:05:21.021Z,78.81
2023-02-03T11:07:48.199Z,78.78
2023-02-03T11:10:37.759Z,78.98
2023-02-03T11:13:17.177Z,78.47
2023-02-03T11:16:10.786Z,78.67
2023-02-03T11:18:52.078Z,79.26
2023-02-03T11:21:37.066Z,78.97
2023-02-03T11:24:09.394Z,78.51
2023-02-03T11:26:42.153Z,78.26
2023-02-03T11:29:18.412Z,79.27
2023-02-03T11:31:50.182Z,79.08
2023-02-03T11:34:24.064Z,78.86
2023-02-03T11:36:50.614Z,79.45
2023-02-03T11:39:25.758Z,79.52
2023-02-03T11:41:53.209Z,78.85
2023-02-03T11:44:26.200Z,78.43
2023-02-03T11:47:01.506Z,78.79
2023-02-03T11:50:04.915Z,79.42
2023-02-03T11:52:37.168Z,78.84
2023-02-03T11:55:25.549Z,79.40
2023-02-03T11:58:14.033Z,79.76
2023-02-03T12:01:05.405Z,79.72
2023-02-03T12:03:56.511Z,80.30
2023-02-03T12:07:01.309Z,80.42
2023-02-03T12:09:46.692Z,81.55
2023-02-03T12:12:15.833Z,82.07
2023-02-03T12:15:03.744Z,82.85
2023-02-03T12:17:50.506Z,82.97
2023-02-03T12:20:52.732Z,83.26
2023-02-03T12:23:31.243Z,83.21
2023-02-03T12:26:20.622Z,84.27
2023-02-03T12:29:13.214Z,85.03
2023-02-03T12:31:46.609Z,86.00
2023-02-03T12:34:17.845Z,86.89
2023-02-03T12:37:03.071Z,87.06
2023-02-03T12:39:34.387Z,86.97
2023-02-03T12:42:07.536Z,86.80
2023-02-03T12:44:57.317Z,86.77
2023-02-03T12:47:30.233Z,86.54
2023-02-03T12:50:03.440Z,87.19
2023-02-03T12:52:42.482Z,87.00
2023-02-03T12:55:09.051Z,87.04
2023-02-03T12:57:45.106Z,87.49
2023-02-03T13:00:36.860Z,87.13
2023-02-03T13:03:16.429Z,87.21
2023-02-03T13:06:01.277Z,87.53
2023-02-03T13:09:13.316Z,87.14
2023-02-03T13:11:46.545Z,87.88
2023-02-03T13:14:23.081Z,88.22
2023-02-03T13:17:01.655Z,88.19
2023-02-03T13:19:40.803Z,87.78
2023-02-03T13:22:15.430Z,87.70
2023-02-03T13:24:48.780Z,87.02
2023-02-03T13:27:49.017Z,86.96
2023-02-03T13:30:30.024Z,86.92
2023-02-03T13:33:06.604Z,86.04
2023-02-03T13:35:44.260Z,86.49
2023-02-03T13:38:46.306Z,85.75
2023-02-03T13:41:28.108Z,85.44
2023-02-03T13:43:57.223Z,86.07
2023-02-03T13:46:31.210Z,85.37
2023-02-03T13:49:01.257Z,85.51
2023-02-03T13:51:34.641Z,85.46
2023-02-03T13:54:08.797Z,85.34
2023-02-03T13:56:35.721Z,86.03
2023-02-03T13:59:05.981Z,85.74
2023-02-03T14:01:38.942Z,85.36
2023-02-03T14:04:23.529Z,85.96
2023-02-03T14:06:52.342Z,85.57
2023-02-03T14:09:24.172Z,86.15
2023-02-03T14:11:53.384Z,84.92
2023-02-03T14:14:22.409Z,85.35
2023-02-03T14:16:54.535Z,85.72
2023-02-03T14:19:30.216Z,85.83
2023-02-03T14:22:06.840Z,85.82
2023-02-03T14:24:38.350Z,85.85
2023-02-03T14:27:21.995Z,85.93
2023-02-03T14:30:09.442Z,86.01
2023-02-03T14:32:58.361Z,86.74
2023-02-03T14:35:40.130Z,86.88
2023-02-03T14:38:10.723Z,87.52
2023-02-03T14:40:57.717Z,87.42
2023-02-03T14:43:34.709Z,88.25
2023-02-03T14:46:35.376Z,88.55
2023-02-03T14:49:08.113Z,88.98
2023-02-03T14:51:56.594Z,88.78
2023-02-03T14:54:51.555Z,88.63
2023-02-03T14:57:58.488Z,89.02
2023-02-03T15:00:31.604Z,88.97
2023-02-03T15:03:08.848Z,88.63
2023-02-03T15:05:50.209Z,89.31
2023-02-03T15:08:44.152Z,89.39
2023-02-03T15:11:24.529Z,89.91
2023-02-03T15:13:51.609Z,89.56
2023-02-03T15:16:23.611Z,90.29
2023-02-03T15:19:03.112Z,89.92
2023-02-03T15:21:29.558Z,89.81
2023-02-03T15:23:56.061Z,90.85
2023-02-03T15:26:28.643Z,91.40
2023-02-03T15:29:02.490Z,91.01
2023-02-03T15:31:32.366Z,90.30
2023-02-03T15:34:04.434Z,90.51
2023-02-03T15:36:46.955Z,90.25
2023-02-03T15:39:39.242Z,90.50
2023-02-03T15:42:13.114Z,89.77
2023-02-03T15:44:44.193Z,90.52
2023-02-03T15:47:30.116Z,91.15
2023-02-03T15:50:05.876Z,91.37
2023-02-03T15:52:36.969Z,91.35
2023-02-03T15:55:16.987Z,90.95
2023-02-03T15:57:47.622Z,90.79
2023-02-03T16:00:32.035Z,90.76
2023-02-03T16:03:00.233Z,90.69
2023-02-03T16:05:30.874Z,90.59
2023-02-03T16:08:17.938Z,90.83
2023-02-03T16:10:44.519Z,90.92
2023-02-03T16:13:25.268Z,91.15
2023-02-03T16:16:03.573Z,91.25
2023-02-03T16:18:30.080Z,90.58
2023-02-03T16:20:56.916Z,90.98
2023-02-03T16:23:27.403Z,90.10
2023-02-03T16:26:04.559Z,89.93
2023-02-03T16:28:49.712Z,89.92
2023-02-03T16:31:38.131Z,90.19
2023-02-03T16:34:35.722Z,91.05
2023-02-03T16:37:29.785Z,90.39
2023-02-03T16:40:14.778Z,91.12
2023-02-03T16:43:00.084Z,90.30
2023-02-03T16:45:45.200Z,90.89
2023-02-03T16:48:31.314Z,90.72
2023-02-03T16:51:13.399Z,91.25
2023-02-03T16:53:40.461Z,90.81
2023-02-03T16:56:07.215Z,91.01
2023-02-03T16:58:33.721Z,90.98
2023-02-03T17:01:03.705Z,90.99
2023-02-03T17:03:32.710Z,91.14
2023-02-03T17:06:04.579Z,90.74
2023-02-03T17:08:31.126Z,90.75
2023-02-03T17:11:06.445Z,90.68
2023-02-03T17:13:33.557Z,90.07
2023-02-03T17:16:00.336Z,90.45
2023-02-03T17:18:27.241Z,90.66
2023-02-03T17:20:55.067Z,89.83
2023-02-03T17:23:23.489Z,89.63
2023-02-03T17:25:50.516Z,90.37
2023-02-03T17:28:17.680Z,90.10
2023-02-03T17:30:44.370Z,90.55
2023-02-03T17:33:12.247Z,90.82
2023-02-03T17:35:41.114Z,91.32
2023-02-03T17:38:08.419Z,90.30
2023-02-03T17:54:16.570Z,91.20
2023-02-03T17:56:47.323Z,91.25
2023-02-03T17:59:14.330Z,91.30
2023-02-03T18:01:41.400Z,91.89
2023-02-03T18:04:11.620Z,91.69
2023-02-03T18:06:38.442Z,92.05
2023-02-03T18:09:07.099Z,91.57
2023-02-03T18:11:35.281Z,91.45
2023-02-03T18:14:02.325Z,91.90
2023-02-03T18:16:34.764Z,91.95
2023-02-03T18:19:04.482Z,91.97
2023-02-03T18:21:32.391Z,92.42
2023-02-03T18:24:02.015Z,92.76
2023-02-03T18:26:32.429Z,92.32
2023-02-03T18:28:58.920Z,92.53
2023-02-03T18:31:25.480Z,92.10
2023-02-03T18:33:52.450Z,92.77
2023-02-03T18:36:19.677Z,92.32
2023-02-03T18:38:48.053Z,92.90
2023-02-03T18:41:21.154Z,92.52
2023-02-03T18:43:49.256Z,92.20
2023-02-03T18:46:21.635Z,92.63
2023-02-03T18:48:48.454Z,93.10
2023-02-03T18:51:16.663Z,93.24
2023-02-03T18:53:45.018Z,93.07
2023-02-03T18:56:25.145Z,93.30
2023-02-03T18:58:51.807Z,93.58
2023-02-03T19:01:28.057Z,92.84
2023-02-03T19:03:55.986Z,93.09
2023-02-03T19:06:24.063Z,93.15
2023-02-03T19:08:51.215Z,93.28
2023-02-03T19:11:17.694Z,93.88
2023-02-03T19:13:44.501Z,99.00
2023-02-03T19:16:13.385Z,96.36
2023-02-03T19:18:41.063Z,93.30
2023-02-03T19:21:07.589Z,90.33
2023-02-03T19:23:34.072Z,84.49
2023-02-03T19:26:00.592Z,84.14
2023-02-03T19:28:30.955Z,85.05
2023-02-03T19:31:09.173Z,86.15
2023-02-03T19:33:36.748Z,87.14
2023-02-03T19:36:04.556Z,87.22
2023-02-03T19:38:31.328Z,86.93
2023-02-03T19:40:57.922Z,88.09
2023-02-03T19:43:24.949Z,88.61
2023-02-03T19:45:51.740Z,89.43
2023-02-03T19:48:18.300Z,89.79
2023-02-03T19:50:47.305Z,90.31
2023-02-03T19:53:15.339Z,90.85
2023-02-03T19:55:43.331Z,90.27
2023-02-03T19:58:10.388Z,91.34
2023-02-03T20:00:36.863Z,91.46
2023-02-03T20:03:03.635Z,90.94
2023-02-03T20:05:31.185Z,91.24
2023-02-03T20:07:57.771Z,91.09
2023-02-03T20:10:26.276Z,90.53
2023-02-03T20:12:54.283Z,90.96
2023-02-03T20:15:21.566Z,91.08
2023-02-03T20:17:48.127Z,90.52
2023-02-03T20:20:16.056Z,90.58
2023-02-03T20:22:42.692Z,91.84
2023-02-03T20:25:10.253Z,91.77
2023-02-03T20:27:36.860Z,91.28
2023-02-03T20:30:04.077Z,91.06
2023-02-03T20:32:31.128Z,91.10
2023-02-03T20:34:57.754Z,90.48
2023-02-03T20:37:24.426Z,90.66
2023-02-03T20:39:50.949Z,91.33
2023-02-03T20:42:17.959Z,90.62
2023-02-03T20:44:44.992Z,91.85
2023-02-03T20:47:13.360Z,91.36
2023-02-03T20:49:40.079Z,91.70
2023-02-03T20:52:18.271Z,91.39
2023-02-03T20:54:45.204Z,90.74
2023-02-03T20:57:17.589Z,91.42
2023-02-03T20:59:45.018Z,90.65
2023-02-03T21:02:31.824Z,90.56
2023-02-03T21:04:59.760Z,90.14
2023-02-03T21:07:30.504Z,90.55
2023-02-03T21:09:58.824Z,90.57
2023-02-03T21:12:28.066Z,90.29
2023-02-03T21:14:55.089Z,90.48
2023-02-03T21:17:26.682Z,90.13
2023-02-03T21:19:54.834Z,90.95
2023-02-03T21:22:26.510Z,90.72
2023-02-03T21:25:00.049Z,90.39
2023-02-03T21:27:31.960Z,90.40
2023-02-03T21:30:00.847Z,90.14
2023-02-03T21:32:38.366Z,90.20
2023-02-03T21:35:24.081Z,90.63
2023-02-03T21:37:56.940Z,90.58
2023-02-03T21:40:26.390Z,90.72
2023-02-03T21:42:53.981Z,90.85
2023-02-03T21:45:35.649Z,90.91
2023-02-03T21:48:23.961Z,91.48
2023-02-03T21:50:51.128Z,91.18
2023-02-03T21:53:27.998Z,91.06
2023-02-03T21:55:55.071Z,91.57
2023-02-03T21:58:30.126Z,91.42
2023-02-03T22:00:58.834Z,91.23
2023-02-03T22:03:27.100Z,91.56
2023-02-03T22:06:34.779Z,91.79
2023-02-03T22:09:01.286Z,91.56
2023-02-03T22:11:29.513Z,92.23
2023-02-03T22:13:57.262Z,92.46
2023-02-03T22:16:25.270Z,92.22
2023-02-03T22:18:52.152Z,92.37
2023-02-03T22:21:18.873Z,92.12
2023-02-03T22:23:45.613Z,92.47
2023-02-03T22:26:13.193Z,92.03
2023-02-03T22:28:40.634Z,91.97
2023-02-03T22:31:08.583Z,92.37
2023-02-03T22:33:35.769Z,92.35
2023-02-03T22:36:03.328Z,92.16
2023-02-03T22:38:31.062Z,92.36
2023-02-03T22:40:57.517Z,93.00
2023-02-03T22:43:24.470Z,92.41
2023-02-03T22:45:51.268Z,92.86
2023-02-03T22:48:17.736Z,93.55
2023-02-03T22:50:44.168Z,93.58
2023-02-03T22:53:10.660Z,94.38
2023-02-03T22:55:37.872Z,93.73
2023-02-03T22:58:05.272Z,93.52
2023-02-03T23:00:32.605Z,93.28
2023-02-03T23:02:59.628Z,93.57
2023-02-03T23:05:26.666Z,94.02
2023-02-03T23:07:53.777Z,93.66
2023-02-03T23:10:23.522Z,93.82
2023-02-03T23:12:50.244Z,93.27
2023-02-03T23:15:18.181Z,93.22
2023-02-03T23:17:45.319Z,93.66
2023-02-03T23:20:13.465Z,93.77
2023-02-03T23:22:39.905Z,94.22
2023-02-03T23:25:06.808Z,93.71
2023-02-03T23:27:33.225Z,94.24
2023-02-03T23:29:59.704Z,93.92
2023-02-03T23:32:26.148Z,94.12
2023-02-03T23:35:11.409Z,93.64
2023-02-03T23:37:37.892Z,93.12
2023-02-03T23:40:06.159Z,93.77
2023-02-03T23:42:32.658Z,93.32
2023-02-03T23:44:59.183Z,93.95
2023-02-03T23:47:25.673Z,93.61
2023-02-03T23:49:52.067Z,92.67
2023-02-03T23:52:18.529Z,93.04
2023-02-03T23:54:45.203Z,93.23
2023-02-03T23:57:11.698Z,93.34
2023-02-03T23:59:38.146Z,92.96
